sensor_id;sensor_type;location;lat;lon;timestamp;P1;durP1;ratioP1;P2;durP2;ratioP2
59876;SDS011;45749;51.140;17.184;2023-07-20T00:01:24;3.40;;;1.63;;
59876;SDS011;45749;51.140;17.184;2023-07-20T00:03:50;3.97;;;2.05;;
59876;SDS011;45749;51.140;17.184;2023-07-20T00:06:26;3.10;;;1.55;;
59876;SDS011;45749;51.140;17.184;2023-07-20T00:08:53;3.08;;;1.85;;
59876;SDS011;45749;51.140;17.184;2023-07-20T00:11:18;3.20;;;1.70;;
59876;SDS011;45749;51.140;17.184;2023-07-20T00:13:44;3.35;;;1.52;;
59876;SDS011;45749;51.140;17.184;2023-07-20T00:16:09;3.38;;;1.98;;
59876;SDS011;45749;51.140;17.184;2023-07-20T00:18:35;3.78;;;1.80;;
59876;SDS011;45749;51.140;17.184;2023-07-20T00:21:00;4.45;;;2.10;;
59876;SDS011;45749;51.140;17.184;2023-07-20T00:23:27;3.85;;;1.75;;
59876;SDS011;45749;51.140;17.184;2023-07-20T00:25:52;4.10;;;1.95;;
59876;SDS011;45749;51.140;17.184;2023-07-20T00:28:18;2.72;;;1.75;;
59876;SDS011;45749;51.140;17.184;2023-07-20T00:30:43;3.03;;;2.33;;
59876;SDS011;45749;51.140;17.184;2023-07-20T00:33:09;3.65;;;1.60;;
59876;SDS011;45749;51.140;17.184;2023-07-20T00:35:36;2.50;;;1.58;;
59876;SDS011;45749;51.140;17.184;2023-07-20T00:38:03;4.18;;;1.90;;
59876;SDS011;45749;51.140;17.184;2023-07-20T00:40:28;4.63;;;2.20;;
59876;SDS011;45749;51.140;17.184;2023-07-20T00:42:54;2.72;;;1.40;;
59876;SDS011;45749;51.140;17.184;2023-07-20T00:45:19;2.72;;;1.60;;
59876;SDS011;45749;51.140;17.184;2023-07-20T00:47:44;5.38;;;1.60;;
59876;SDS011;45749;51.140;17.184;2023-07-20T00:50:10;6.25;;;2.20;;
59876;SDS011;45749;51.140;17.184;2023-07-20T00:52:35;5.68;;;2.15;;
59876;SDS011;45749;51.140;17.184;2023-07-20T00:55:04;4.15;;;2.38;;
59876;SDS011;45749;51.140;17.184;2023-07-20T00:57:30;3.35;;;1.83;;
59876;SDS011;45749;51.140;17.184;2023-07-20T00:59:56;6.43;;;2.35;;
59876;SDS011;45749;51.140;17.184;2023-07-20T01:02:22;2.83;;;2.00;;
59876;SDS011;45749;51.140;17.184;2023-07-20T01:04:47;5.70;;;1.92;;
59876;SDS011;45749;51.140;17.184;2023-07-20T01:07:19;3.63;;;2.20;;
59876;SDS011;45749;51.140;17.184;2023-07-20T01:12:59;4.07;;;1.70;;
59876;SDS011;45749;51.140;17.184;2023-07-20T01:15:26;4.40;;;2.00;;
59876;SDS011;45749;51.140;17.184;2023-07-20T01:17:52;4.93;;;1.88;;
59876;SDS011;45749;51.140;17.184;2023-07-20T01:20:18;2.47;;;1.97;;
59876;SDS011;45749;51.140;17.184;2023-07-20T01:23:11;6.30;;;2.25;;
59876;SDS011;45749;51.140;17.184;2023-07-20T01:31:24;2.80;;;1.67;;
59876;SDS011;45749;51.140;17.184;2023-07-20T01:33:53;3.20;;;1.50;;
59876;SDS011;45749;51.140;17.184;2023-07-20T01:36:21;3.30;;;1.90;;
59876;SDS011;45749;51.140;17.184;2023-07-20T01:38:49;5.25;;;2.60;;
59876;SDS011;45749;51.140;17.184;2023-07-20T01:41:16;3.88;;;1.95;;
59876;SDS011;45749;51.140;17.184;2023-07-20T01:43:43;4.63;;;2.38;;
59876;SDS011;45749;51.140;17.184;2023-07-20T01:46:08;2.83;;;1.67;;
59876;SDS011;45749;51.140;17.184;2023-07-20T01:48:34;3.20;;;1.70;;
59876;SDS011;45749;51.140;17.184;2023-07-20T01:50:59;4.40;;;2.15;;
59876;SDS011;45749;51.140;17.184;2023-07-20T01:53:24;5.65;;;2.30;;
59876;SDS011;45749;51.140;17.184;2023-07-20T01:55:52;5.60;;;1.88;;
59876;SDS011;45749;51.140;17.184;2023-07-20T01:58:18;4.65;;;1.77;;
59876;SDS011;45749;51.140;17.184;2023-07-20T02:00:43;4.03;;;2.23;;
59876;SDS011;45749;51.140;17.184;2023-07-20T02:03:08;4.50;;;2.08;;
59876;SDS011;45749;51.140;17.184;2023-07-20T02:05:34;3.97;;;2.03;;
59876;SDS011;45749;51.140;17.184;2023-07-20T02:07:59;3.10;;;1.80;;
59876;SDS011;45749;51.140;17.184;2023-07-20T02:10:24;2.87;;;1.90;;
59876;SDS011;45749;51.140;17.184;2023-07-20T02:12:50;3.07;;;1.70;;
59876;SDS011;45749;51.140;17.184;2023-07-20T02:15:15;3.05;;;1.90;;
59876;SDS011;45749;51.140;17.184;2023-07-20T02:17:44;4.20;;;1.88;;
59876;SDS011;45749;51.140;17.184;2023-07-20T02:20:09;3.03;;;1.92;;
59876;SDS011;45749;51.140;17.184;2023-07-20T02:22:36;3.63;;;1.67;;
59876;SDS011;45749;51.140;17.184;2023-07-20T02:25:03;3.47;;;1.60;;
59876;SDS011;45749;51.140;17.184;2023-07-20T02:27:29;4.82;;;2.78;;
59876;SDS011;45749;51.140;17.184;2023-07-20T02:29:55;3.58;;;1.75;;
59876;SDS011;45749;51.140;17.184;2023-07-20T02:32:20;3.88;;;2.08;;
59876;SDS011;45749;51.140;17.184;2023-07-20T02:34:45;3.60;;;1.97;;
59876;SDS011;45749;51.140;17.184;2023-07-20T02:37:11;4.07;;;1.73;;
59876;SDS011;45749;51.140;17.184;2023-07-20T02:39:38;3.13;;;2.17;;
59876;SDS011;45749;51.140;17.184;2023-07-20T02:42:03;3.28;;;1.90;;
59876;SDS011;45749;51.140;17.184;2023-07-20T02:44:29;2.55;;;1.90;;
59876;SDS011;45749;51.140;17.184;2023-07-20T02:46:55;4.90;;;2.20;;
59876;SDS011;45749;51.140;17.184;2023-07-20T02:49:20;3.22;;;1.73;;
59876;SDS011;45749;51.140;17.184;2023-07-20T02:51:45;2.45;;;1.45;;
59876;SDS011;45749;51.140;17.184;2023-07-20T02:54:11;4.13;;;2.08;;
59876;SDS011;45749;51.140;17.184;2023-07-20T02:56:37;3.05;;;1.92;;
59876;SDS011;45749;51.140;17.184;2023-07-20T02:59:02;2.95;;;1.63;;
59876;SDS011;45749;51.140;17.184;2023-07-20T03:01:28;2.10;;;1.70;;
59876;SDS011;45749;51.140;17.184;2023-07-20T03:03:54;2.30;;;1.58;;
59876;SDS011;45749;51.140;17.184;2023-07-20T03:06:20;5.05;;;2.08;;
59876;SDS011;45749;51.140;17.184;2023-07-20T03:08:45;2.85;;;1.60;;
59876;SDS011;45749;51.140;17.184;2023-07-20T03:11:12;1.90;;;1.40;;
59876;SDS011;45749;51.140;17.184;2023-07-20T03:13:39;1.85;;;1.65;;
59876;SDS011;45749;51.140;17.184;2023-07-20T03:16:05;2.75;;;1.90;;
59876;SDS011;45749;51.140;17.184;2023-07-20T03:18:36;3.05;;;1.88;;
59876;SDS011;45749;51.140;17.184;2023-07-20T03:21:01;4.25;;;2.00;;
59876;SDS011;45749;51.140;17.184;2023-07-20T03:23:27;3.63;;;2.43;;
59876;SDS011;45749;51.140;17.184;2023-07-20T03:25:52;4.28;;;2.20;;
59876;SDS011;45749;51.140;17.184;2023-07-20T03:28:20;3.80;;;1.70;;
59876;SDS011;45749;51.140;17.184;2023-07-20T03:30:45;3.65;;;1.80;;
59876;SDS011;45749;51.140;17.184;2023-07-20T03:33:10;4.10;;;2.00;;
59876;SDS011;45749;51.140;17.184;2023-07-20T03:35:35;6.07;;;1.87;;
59876;SDS011;45749;51.140;17.184;2023-07-20T03:38:01;3.20;;;2.03;;
59876;SDS011;45749;51.140;17.184;2023-07-20T03:40:26;2.50;;;1.90;;
59876;SDS011;45749;51.140;17.184;2023-07-20T03:42:51;5.78;;;2.15;;
59876;SDS011;45749;51.140;17.184;2023-07-20T03:45:17;3.88;;;1.75;;
59876;SDS011;45749;51.140;17.184;2023-07-20T03:47:42;3.93;;;2.00;;
59876;SDS011;45749;51.140;17.184;2023-07-20T03:50:09;3.33;;;1.65;;
59876;SDS011;45749;51.140;17.184;2023-07-20T03:52:35;3.80;;;2.22;;
59876;SDS011;45749;51.140;17.184;2023-07-20T03:55:00;4.20;;;1.90;;
59876;SDS011;45749;51.140;17.184;2023-07-20T03:57:26;3.40;;;1.85;;
59876;SDS011;45749;51.140;17.184;2023-07-20T03:59:51;4.57;;;2.03;;
59876;SDS011;45749;51.140;17.184;2023-07-20T04:02:16;3.70;;;1.92;;
59876;SDS011;45749;51.140;17.184;2023-07-20T04:04:42;4.90;;;2.60;;
59876;SDS011;45749;51.140;17.184;2023-07-20T04:07:07;7.63;;;2.23;;
59876;SDS011;45749;51.140;17.184;2023-07-20T04:09:32;4.25;;;2.40;;
59876;SDS011;45749;51.140;17.184;2023-07-20T04:11:58;3.75;;;2.90;;
59876;SDS011;45749;51.140;17.184;2023-07-20T04:14:23;3.38;;;2.70;;
59876;SDS011;45749;51.140;17.184;2023-07-20T04:16:48;5.60;;;2.77;;
59876;SDS011;45749;51.140;17.184;2023-07-20T04:19:14;4.22;;;2.88;;
59876;SDS011;45749;51.140;17.184;2023-07-20T04:21:39;6.45;;;2.63;;
59876;SDS011;45749;51.140;17.184;2023-07-20T04:24:08;5.22;;;2.90;;
59876;SDS011;45749;51.140;17.184;2023-07-20T04:26:33;3.53;;;2.55;;
59876;SDS011;45749;51.140;17.184;2023-07-20T04:28:59;3.72;;;2.45;;
59876;SDS011;45749;51.140;17.184;2023-07-20T04:31:24;4.10;;;2.20;;
59876;SDS011;45749;51.140;17.184;2023-07-20T04:33:50;5.65;;;2.55;;
59876;SDS011;45749;51.140;17.184;2023-07-20T04:36:15;4.70;;;2.88;;
59876;SDS011;45749;51.140;17.184;2023-07-20T04:38:44;5.38;;;2.58;;
59876;SDS011;45749;51.140;17.184;2023-07-20T04:41:10;5.18;;;2.47;;
59876;SDS011;45749;51.140;17.184;2023-07-20T04:43:37;9.48;;;2.67;;
59876;SDS011;45749;51.140;17.184;2023-07-20T04:46:06;4.40;;;2.78;;
59876;SDS011;45749;51.140;17.184;2023-07-20T04:48:31;4.00;;;2.80;;
59876;SDS011;45749;51.140;17.184;2023-07-20T04:50:57;5.35;;;3.63;;
59876;SDS011;45749;51.140;17.184;2023-07-20T04:53:22;5.80;;;2.90;;
59876;SDS011;45749;51.140;17.184;2023-07-20T04:55:48;6.70;;;3.00;;
59876;SDS011;45749;51.140;17.184;2023-07-20T04:58:19;4.40;;;2.50;;
59876;SDS011;45749;51.140;17.184;2023-07-20T05:00:45;6.90;;;2.58;;
59876;SDS011;45749;51.140;17.184;2023-07-20T05:03:10;3.78;;;2.35;;
59876;SDS011;45749;51.140;17.184;2023-07-20T05:05:36;5.70;;;3.28;;
59876;SDS011;45749;51.140;17.184;2023-07-20T05:08:02;5.20;;;2.40;;
59876;SDS011;45749;51.140;17.184;2023-07-20T05:10:29;3.90;;;2.60;;
59876;SDS011;45749;51.140;17.184;2023-07-20T05:12:54;5.03;;;2.50;;
59876;SDS011;45749;51.140;17.184;2023-07-20T05:15:19;6.03;;;2.80;;
59876;SDS011;45749;51.140;17.184;2023-07-20T05:17:45;5.32;;;2.72;;
59876;SDS011;45749;51.140;17.184;2023-07-20T05:20:10;6.40;;;2.90;;
59876;SDS011;45749;51.140;17.184;2023-07-20T05:22:37;6.22;;;3.40;;
59876;SDS011;45749;51.140;17.184;2023-07-20T05:25:05;5.38;;;2.80;;
59876;SDS011;45749;51.140;17.184;2023-07-20T05:27:34;6.15;;;2.97;;
59876;SDS011;45749;51.140;17.184;2023-07-20T05:30:01;4.30;;;2.90;;
59876;SDS011;45749;51.140;17.184;2023-07-20T05:32:26;5.70;;;3.08;;
59876;SDS011;45749;51.140;17.184;2023-07-20T05:34:52;7.60;;;3.33;;
59876;SDS011;45749;51.140;17.184;2023-07-20T05:37:17;6.47;;;3.30;;
59876;SDS011;45749;51.140;17.184;2023-07-20T05:39:43;7.03;;;3.13;;
59876;SDS011;45749;51.140;17.184;2023-07-20T05:42:08;4.93;;;3.07;;
59876;SDS011;45749;51.140;17.184;2023-07-20T05:44:33;4.43;;;2.97;;
59876;SDS011;45749;51.140;17.184;2023-07-20T05:46:59;6.93;;;3.40;;
59876;SDS011;45749;51.140;17.184;2023-07-20T05:49:24;7.20;;;3.95;;
59876;SDS011;45749;51.140;17.184;2023-07-20T05:51:50;4.88;;;3.00;;
59876;SDS011;45749;51.140;17.184;2023-07-20T05:54:15;6.63;;;2.58;;
59876;SDS011;45749;51.140;17.184;2023-07-20T05:56:40;4.97;;;2.92;;
59876;SDS011;45749;51.140;17.184;2023-07-20T05:59:06;5.45;;;3.13;;
59876;SDS011;45749;51.140;17.184;2023-07-20T06:01:31;7.97;;;3.33;;
59876;SDS011;45749;51.140;17.184;2023-07-20T06:03:56;6.50;;;3.20;;
59876;SDS011;45749;51.140;17.184;2023-07-20T06:06:22;6.77;;;4.37;;
59876;SDS011;45749;51.140;17.184;2023-07-20T06:08:47;7.90;;;4.72;;
59876;SDS011;45749;51.140;17.184;2023-07-20T06:11:12;7.25;;;3.70;;
59876;SDS011;45749;51.140;17.184;2023-07-20T06:13:38;5.43;;;3.40;;
59876;SDS011;45749;51.140;17.184;2023-07-20T06:16:03;6.07;;;3.50;;
59876;SDS011;45749;51.140;17.184;2023-07-20T06:18:29;5.55;;;4.18;;
59876;SDS011;45749;51.140;17.184;2023-07-20T06:20:55;5.88;;;4.05;;
59876;SDS011;45749;51.140;17.184;2023-07-20T06:23:21;4.20;;;2.85;;
59876;SDS011;45749;51.140;17.184;2023-07-20T06:25:46;5.32;;;2.85;;
59876;SDS011;45749;51.140;17.184;2023-07-20T06:28:12;7.05;;;3.50;;
59876;SDS011;45749;51.140;17.184;2023-07-20T06:30:37;5.38;;;3.95;;
59876;SDS011;45749;51.140;17.184;2023-07-20T06:33:03;8.90;;;3.90;;
59876;SDS011;45749;51.140;17.184;2023-07-20T06:35:28;5.13;;;4.00;;
59876;SDS011;45749;51.140;17.184;2023-07-20T06:37:53;5.07;;;3.20;;
59876;SDS011;45749;51.140;17.184;2023-07-20T06:40:19;5.05;;;3.47;;
59876;SDS011;45749;51.140;17.184;2023-07-20T06:42:44;5.22;;;3.53;;
59876;SDS011;45749;51.140;17.184;2023-07-20T06:45:10;6.55;;;3.67;;
59876;SDS011;45749;51.140;17.184;2023-07-20T06:47:37;7.18;;;2.95;;
59876;SDS011;45749;51.140;17.184;2023-07-20T06:50:03;4.60;;;3.53;;
59876;SDS011;45749;51.140;17.184;2023-07-20T06:52:29;4.80;;;2.95;;
59876;SDS011;45749;51.140;17.184;2023-07-20T06:54:54;6.50;;;3.47;;
59876;SDS011;45749;51.140;17.184;2023-07-20T06:57:19;5.70;;;3.47;;
59876;SDS011;45749;51.140;17.184;2023-07-20T06:59:44;8.27;;;3.77;;
59876;SDS011;45749;51.140;17.184;2023-07-20T07:02:10;6.68;;;3.08;;
59876;SDS011;45749;51.140;17.184;2023-07-20T07:04:35;4.67;;;3.67;;
59876;SDS011;45749;51.140;17.184;2023-07-20T07:07:01;5.35;;;3.20;;
59876;SDS011;45749;51.140;17.184;2023-07-20T07:09:27;5.45;;;3.58;;
59876;SDS011;45749;51.140;17.184;2023-07-20T07:11:53;5.47;;;3.20;;
59876;SDS011;45749;51.140;17.184;2023-07-20T07:14:18;6.63;;;3.25;;
59876;SDS011;45749;51.140;17.184;2023-07-20T07:16:45;8.20;;;3.83;;
59876;SDS011;45749;51.140;17.184;2023-07-20T07:19:10;6.32;;;3.17;;
59876;SDS011;45749;51.140;17.184;2023-07-20T07:21:35;3.87;;;3.10;;
59876;SDS011;45749;51.140;17.184;2023-07-20T07:24:00;5.72;;;3.78;;
59876;SDS011;45749;51.140;17.184;2023-07-20T07:26:26;9.55;;;4.68;;
59876;SDS011;45749;51.140;17.184;2023-07-20T07:28:51;4.32;;;3.08;;
59876;SDS011;45749;51.140;17.184;2023-07-20T07:31:16;7.77;;;4.07;;
59876;SDS011;45749;51.140;17.184;2023-07-20T07:33:42;8.40;;;5.13;;
59876;SDS011;45749;51.140;17.184;2023-07-20T07:36:07;6.78;;;3.70;;
59876;SDS011;45749;51.140;17.184;2023-07-20T07:38:33;7.60;;;3.25;;
59876;SDS011;45749;51.140;17.184;2023-07-20T07:40:58;6.37;;;3.40;;
59876;SDS011;45749;51.140;17.184;2023-07-20T07:43:24;8.85;;;4.65;;
59876;SDS011;45749;51.140;17.184;2023-07-20T07:45:49;4.88;;;3.30;;
59876;SDS011;45749;51.140;17.184;2023-07-20T07:48:15;5.70;;;3.08;;
59876;SDS011;45749;51.140;17.184;2023-07-20T07:50:40;6.72;;;3.50;;
59876;SDS011;45749;51.140;17.184;2023-07-20T07:53:06;6.90;;;3.28;;
59876;SDS011;45749;51.140;17.184;2023-07-20T07:55:33;3.83;;;2.95;;
59876;SDS011;45749;51.140;17.184;2023-07-20T07:58:00;4.30;;;3.17;;
59876;SDS011;45749;51.140;17.184;2023-07-20T08:00:25;6.32;;;3.08;;
59876;SDS011;45749;51.140;17.184;2023-07-20T08:02:51;6.28;;;3.00;;
59876;SDS011;45749;51.140;17.184;2023-07-20T08:05:16;3.60;;;3.17;;
59876;SDS011;45749;51.140;17.184;2023-07-20T08:07:42;6.43;;;3.05;;
59876;SDS011;45749;51.140;17.184;2023-07-20T08:10:08;4.65;;;2.63;;
59876;SDS011;45749;51.140;17.184;2023-07-20T08:12:34;4.60;;;3.00;;
59876;SDS011;45749;51.140;17.184;2023-07-20T08:14:59;5.15;;;2.78;;
59876;SDS011;45749;51.140;17.184;2023-07-20T08:17:25;6.07;;;2.78;;
59876;SDS011;45749;51.140;17.184;2023-07-20T08:19:50;4.85;;;3.03;;
59876;SDS011;45749;51.140;17.184;2023-07-20T08:22:15;6.03;;;3.45;;
59876;SDS011;45749;51.140;17.184;2023-07-20T08:24:41;3.83;;;2.58;;
59876;SDS011;45749;51.140;17.184;2023-07-20T08:27:07;7.68;;;2.15;;
59876;SDS011;45749;51.140;17.184;2023-07-20T08:29:34;3.40;;;2.30;;
59876;SDS011;45749;51.140;17.184;2023-07-20T08:31:59;5.28;;;2.88;;
59876;SDS011;45749;51.140;17.184;2023-07-20T08:34:25;5.32;;;2.70;;
59876;SDS011;45749;51.140;17.184;2023-07-20T08:36:50;4.03;;;2.33;;
59876;SDS011;45749;51.140;17.184;2023-07-20T08:39:15;3.20;;;2.33;;
59876;SDS011;45749;51.140;17.184;2023-07-20T08:41:42;4.43;;;2.60;;
59876;SDS011;45749;51.140;17.184;2023-07-20T08:44:09;3.28;;;1.90;;
59876;SDS011;45749;51.140;17.184;2023-07-20T08:46:35;6.63;;;2.90;;
59876;SDS011;45749;51.140;17.184;2023-07-20T08:49:03;3.67;;;2.20;;
59876;SDS011;45749;51.140;17.184;2023-07-20T08:51:29;5.05;;;2.00;;
59876;SDS011;45749;51.140;17.184;2023-07-20T08:53:55;2.78;;;1.60;;
59876;SDS011;45749;51.140;17.184;2023-07-20T08:56:21;3.40;;;2.10;;
59876;SDS011;45749;51.140;17.184;2023-07-20T08:58:49;3.38;;;1.40;;
59876;SDS011;45749;51.140;17.184;2023-07-20T09:01:17;1.58;;;1.13;;
59876;SDS011;45749;51.140;17.184;2023-07-20T09:03:43;5.05;;;2.05;;
59876;SDS011;45749;51.140;17.184;2023-07-20T09:06:10;3.47;;;1.50;;
59876;SDS011;45749;51.140;17.184;2023-07-20T09:08:39;3.67;;;1.63;;
59876;SDS011;45749;51.140;17.184;2023-07-20T09:11:05;2.03;;;1.10;;
59876;SDS011;45749;51.140;17.184;2023-07-20T09:13:34;3.22;;;1.75;;
59876;SDS011;45749;51.140;17.184;2023-07-20T09:15:59;5.25;;;3.05;;
59876;SDS011;45749;51.140;17.184;2023-07-20T09:18:28;2.40;;;1.52;;
59876;SDS011;45749;51.140;17.184;2023-07-20T09:21:00;1.92;;;1.30;;
59876;SDS011;45749;51.140;17.184;2023-07-20T09:23:30;1.63;;;1.33;;
59876;SDS011;45749;51.140;17.184;2023-07-20T09:25:59;4.70;;;1.52;;
59876;SDS011;45749;51.140;17.184;2023-07-20T09:28:25;3.72;;;1.27;;
59876;SDS011;45749;51.140;17.184;2023-07-20T09:30:51;2.10;;;1.30;;
59876;SDS011;45749;51.140;17.184;2023-07-20T09:33:18;1.85;;;1.23;;
59876;SDS011;45749;51.140;17.184;2023-07-20T09:35:46;2.13;;;1.30;;
59876;SDS011;45749;51.140;17.184;2023-07-20T09:38:11;3.08;;;1.40;;
59876;SDS011;45749;51.140;17.184;2023-07-20T09:40:39;2.85;;;1.38;;
59876;SDS011;45749;51.140;17.184;2023-07-20T09:43:07;3.70;;;1.55;;
59876;SDS011;45749;51.140;17.184;2023-07-20T09:45:34;3.60;;;1.20;;
59876;SDS011;45749;51.140;17.184;2023-07-20T09:48:09;2.08;;;1.15;;
59876;SDS011;45749;51.140;17.184;2023-07-20T09:50:56;1.60;;;0.95;;
59876;SDS011;45749;51.140;17.184;2023-07-20T09:53:21;2.65;;;1.50;;
59876;SDS011;45749;51.140;17.184;2023-07-20T09:55:49;2.58;;;1.00;;
59876;SDS011;45749;51.140;17.184;2023-07-20T09:58:15;1.23;;;1.13;;
59876;SDS011;45749;51.140;17.184;2023-07-20T10:00:41;1.50;;;1.23;;
59876;SDS011;45749;51.140;17.184;2023-07-20T10:03:12;1.67;;;1.00;;
59876;SDS011;45749;51.140;17.184;2023-07-20T10:05:43;1.55;;;1.05;;
59876;SDS011;45749;51.140;17.184;2023-07-20T10:08:16;3.53;;;0.98;;
59876;SDS011;45749;51.140;17.184;2023-07-20T10:10:43;2.15;;;0.80;;
59876;SDS011;45749;51.140;17.184;2023-07-20T10:13:16;1.42;;;0.88;;
59876;SDS011;45749;51.140;17.184;2023-07-20T10:15:44;1.60;;;1.00;;
59876;SDS011;45749;51.140;17.184;2023-07-20T10:18:12;0.85;;;0.80;;
59876;SDS011;45749;51.140;17.184;2023-07-20T10:20:42;0.90;;;0.60;;
59876;SDS011;45749;51.140;17.184;2023-07-20T10:23:11;2.58;;;0.93;;
59876;SDS011;45749;51.140;17.184;2023-07-20T10:25:37;1.02;;;0.93;;
59876;SDS011;45749;51.140;17.184;2023-07-20T10:28:06;4.25;;;1.05;;
59876;SDS011;45749;51.140;17.184;2023-07-20T10:30:35;1.48;;;0.70;;
59876;SDS011;45749;51.140;17.184;2023-07-20T10:33:05;1.30;;;1.00;;
59876;SDS011;45749;51.140;17.184;2023-07-20T10:35:31;2.00;;;0.77;;
59876;SDS011;45749;51.140;17.184;2023-07-20T10:38:15;0.73;;;0.63;;
59876;SDS011;45749;51.140;17.184;2023-07-20T10:40:40;0.60;;;0.60;;
59876;SDS011;45749;51.140;17.184;2023-07-20T10:43:06;1.92;;;0.65;;
59876;SDS011;45749;51.140;17.184;2023-07-20T10:45:34;1.65;;;0.70;;
59876;SDS011;45749;51.140;17.184;2023-07-20T10:48:17;1.40;;;0.70;;
59876;SDS011;45749;51.140;17.184;2023-07-20T10:50:42;1.10;;;0.90;;
59876;SDS011;45749;51.140;17.184;2023-07-20T10:53:15;2.15;;;0.98;;
59876;SDS011;45749;51.140;17.184;2023-07-20T10:55:42;2.00;;;0.93;;
59876;SDS011;45749;51.140;17.184;2023-07-20T11:00:35;1.00;;;0.70;;
59876;SDS011;45749;51.140;17.184;2023-07-20T11:03:01;0.55;;;0.45;;
59876;SDS011;45749;51.140;17.184;2023-07-20T11:05:34;1.83;;;1.17;;
59876;SDS011;45749;51.140;17.184;2023-07-20T11:08:02;1.80;;;0.70;;
59876;SDS011;45749;51.140;17.184;2023-07-20T11:10:29;3.78;;;0.50;;
59876;SDS011;45749;51.140;17.184;2023-07-20T11:16:01;2.40;;;0.80;;
59876;SDS011;45749;51.140;17.184;2023-07-20T11:18:28;3.30;;;1.45;;
59876;SDS011;45749;51.140;17.184;2023-07-20T11:20:53;1.50;;;1.05;;
59876;SDS011;45749;51.140;17.184;2023-07-20T11:23:19;2.38;;;0.63;;
59876;SDS011;45749;51.140;17.184;2023-07-20T11:25:45;1.85;;;1.00;;
59876;SDS011;45749;51.140;17.184;2023-07-20T11:28:11;1.33;;;0.80;;
59876;SDS011;45749;51.140;17.184;2023-07-20T11:30:37;1.73;;;0.70;;
59876;SDS011;45749;51.140;17.184;2023-07-20T11:33:03;1.35;;;0.80;;
59876;SDS011;45749;51.140;17.184;2023-07-20T11:35:44;2.50;;;1.10;;
59876;SDS011;45749;51.140;17.184;2023-07-20T11:38:12;2.92;;;0.77;;
59876;SDS011;45749;51.140;17.184;2023-07-20T11:40:42;1.25;;;0.75;;
59876;SDS011;45749;51.140;17.184;2023-07-20T11:43:11;3.30;;;0.60;;
59876;SDS011;45749;51.140;17.184;2023-07-20T11:45:38;2.17;;;0.60;;
59876;SDS011;45749;51.140;17.184;2023-07-20T11:48:04;0.95;;;0.40;;
59876;SDS011;45749;51.140;17.184;2023-07-20T11:50:30;1.95;;;0.40;;
59876;SDS011;45749;51.140;17.184;2023-07-20T11:52:55;0.68;;;0.38;;
59876;SDS011;45749;51.140;17.184;2023-07-20T11:55:21;1.15;;;0.60;;
59876;SDS011;45749;51.140;17.184;2023-07-20T11:58:03;2.63;;;0.60;;
59876;SDS011;45749;51.140;17.184;2023-07-20T12:00:29;2.30;;;0.63;;
59876;SDS011;45749;51.140;17.184;2023-07-20T12:02:54;0.85;;;0.45;;
59876;SDS011;45749;51.140;17.184;2023-07-20T12:05:21;1.33;;;0.65;;
59876;SDS011;45749;51.140;17.184;2023-07-20T12:07:48;1.17;;;0.90;;
59876;SDS011;45749;51.140;17.184;2023-07-20T12:10:16;5.00;;;1.55;;
59876;SDS011;45749;51.140;17.184;2023-07-20T12:12:49;2.08;;;1.23;;
59876;SDS011;45749;51.140;17.184;2023-07-20T12:15:15;1.65;;;1.23;;
59876;SDS011;45749;51.140;17.184;2023-07-20T12:17:49;2.03;;;1.23;;
59876;SDS011;45749;51.140;17.184;2023-07-20T12:20:29;3.35;;;1.45;;
59876;SDS011;45749;51.140;17.184;2023-07-20T12:23:00;2.47;;;1.13;;
59876;SDS011;45749;51.140;17.184;2023-07-20T12:25:36;1.35;;;1.23;;
59876;SDS011;45749;51.140;17.184;2023-07-20T12:28:08;4.32;;;1.50;;
59876;SDS011;45749;51.140;17.184;2023-07-20T12:30:36;2.78;;;1.23;;
59876;SDS011;45749;51.140;17.184;2023-07-20T12:33:02;1.40;;;1.15;;
59876;SDS011;45749;51.140;17.184;2023-07-20T12:35:28;1.45;;;1.17;;
59876;SDS011;45749;51.140;17.184;2023-07-20T12:37:54;2.13;;;1.10;;
59876;SDS011;45749;51.140;17.184;2023-07-20T12:40:20;2.53;;;1.05;;
59876;SDS011;45749;51.140;17.184;2023-07-20T12:42:46;1.48;;;1.17;;
59876;SDS011;45749;51.140;17.184;2023-07-20T12:45:11;1.35;;;1.15;;
59876;SDS011;45749;51.140;17.184;2023-07-20T12:47:36;1.75;;;1.20;;
59876;SDS011;45749;51.140;17.184;2023-07-20T12:50:02;1.50;;;1.13;;
59876;SDS011;45749;51.140;17.184;2023-07-20T12:52:29;1.33;;;1.02;;
59876;SDS011;45749;51.140;17.184;2023-07-20T12:54:55;1.33;;;1.23;;
59876;SDS011;45749;51.140;17.184;2023-07-20T12:57:20;1.45;;;1.00;;
59876;SDS011;45749;51.140;17.184;2023-07-20T12:59:45;3.05;;;2.00;;
59876;SDS011;45749;51.140;17.184;2023-07-20T13:02:10;2.30;;;1.10;;
59876;SDS011;45749;51.140;17.184;2023-07-20T13:04:36;1.70;;;1.20;;
59876;SDS011;45749;51.140;17.184;2023-07-20T13:07:03;1.52;;;1.13;;
59876;SDS011;45749;51.140;17.184;2023-07-20T13:09:28;3.20;;;1.17;;
59876;SDS011;45749;51.140;17.184;2023-07-20T13:11:53;1.07;;;0.90;;
59876;SDS011;45749;51.140;17.184;2023-07-20T13:14:19;2.00;;;1.13;;
59876;SDS011;45749;51.140;17.184;2023-07-20T13:16:44;0.80;;;0.70;;
59876;SDS011;45749;51.140;17.184;2023-07-20T13:19:09;1.20;;;1.00;;
59876;SDS011;45749;51.140;17.184;2023-07-20T13:21:35;1.20;;;0.60;;
59876;SDS011;45749;51.140;17.184;2023-07-20T13:24:00;0.93;;;0.77;;
59876;SDS011;45749;51.140;17.184;2023-07-20T13:26:25;0.70;;;0.50;;
59876;SDS011;45749;51.140;17.184;2023-07-20T13:28:51;0.90;;;0.80;;
59876;SDS011;45749;51.140;17.184;2023-07-20T13:31:16;0.75;;;0.52;;
59876;SDS011;45749;51.140;17.184;2023-07-20T13:33:42;3.38;;;1.70;;
59876;SDS011;45749;51.140;17.184;2023-07-20T13:36:08;0.88;;;0.80;;
59876;SDS011;45749;51.140;17.184;2023-07-20T13:38:33;1.58;;;0.80;;
59876;SDS011;45749;51.140;17.184;2023-07-20T13:40:58;1.00;;;0.70;;
59876;SDS011;45749;51.140;17.184;2023-07-20T13:43:23;2.75;;;0.90;;
59876;SDS011;45749;51.140;17.184;2023-07-20T13:45:50;2.95;;;1.25;;
59876;SDS011;45749;51.140;17.184;2023-07-20T13:48:15;1.35;;;0.90;;
59876;SDS011;45749;51.140;17.184;2023-07-20T13:50:42;1.77;;;0.93;;
59876;SDS011;45749;51.140;17.184;2023-07-20T13:53:07;0.80;;;0.70;;
59876;SDS011;45749;51.140;17.184;2023-07-20T13:55:32;0.98;;;0.70;;
59876;SDS011;45749;51.140;17.184;2023-07-20T13:58:01;1.00;;;0.80;;
59876;SDS011;45749;51.140;17.184;2023-07-20T14:00:26;1.33;;;0.87;;
59876;SDS011;45749;51.140;17.184;2023-07-20T14:02:55;2.65;;;1.13;;
59876;SDS011;45749;51.140;17.184;2023-07-20T14:05:21;4.13;;;0.82;;
59876;SDS011;45749;51.140;17.184;2023-07-20T14:07:46;1.63;;;0.85;;
59876;SDS011;45749;51.140;17.184;2023-07-20T14:10:13;0.70;;;0.50;;
59876;SDS011;45749;51.140;17.184;2023-07-20T14:12:38;0.80;;;0.55;;
59876;SDS011;45749;51.140;17.184;2023-07-20T14:15:03;1.00;;;0.57;;
59876;SDS011;45749;51.140;17.184;2023-07-20T14:17:29;0.57;;;0.57;;
59876;SDS011;45749;51.140;17.184;2023-07-20T14:19:55;0.70;;;0.50;;
59876;SDS011;45749;51.140;17.184;2023-07-20T14:22:20;1.38;;;0.75;;
59876;SDS011;45749;51.140;17.184;2023-07-20T14:24:45;3.45;;;2.63;;
59876;SDS011;45749;51.140;17.184;2023-07-20T14:27:12;9.43;;;8.52;;
59876;SDS011;45749;51.140;17.184;2023-07-20T14:29:37;1.60;;;0.82;;
59876;SDS011;45749;51.140;17.184;2023-07-20T14:32:03;1.00;;;0.60;;
59876;SDS011;45749;51.140;17.184;2023-07-20T14:34:32;2.08;;;0.80;;
59876;SDS011;45749;51.140;17.184;2023-07-20T14:36:59;1.50;;;0.77;;
59876;SDS011;45749;51.140;17.184;2023-07-20T14:39:24;1.88;;;1.00;;
59876;SDS011;45749;51.140;17.184;2023-07-20T14:41:50;0.98;;;0.70;;
59876;SDS011;45749;51.140;17.184;2023-07-20T14:44:16;0.98;;;0.60;;